Main page
METAR-TAF:

METAR-TAF

Airports :

Copernicus Airport Wrocław

Wrocław, Poland

latitude: 51-06N, longitude: 016-53E, elevation: 120 m

Current weather observation

The report was made 27 minutes ago, at 22:30 UTC
Wind 7 kt from the Southeast
Temperature 9°C
Humidity 87%
Pressure 1012 hPa
Visibility 10 km or more
Scattered clouds at a height of 4300 ft

METAR: EPWR 212230Z 14007KT 9999 SCT043 09/07 Q1012

Time: 23:57 (22:57 UTC)

Forecast

The report was made 2 hours and 27 minutes ago, at 20:30 UTC
Forecast valid from 21 at 21 UTC to 22 at 21 UTC
Wind 10 kt from the Southeast
Visibility 10 km or more
Broken clouds at a height of 3000 ft

TAF: EPWR 212030Z 2121/2221 14010KT 9999 BKN030

Weather observations and forecasts of more than 4000 airports (METAR and TAF reports).

The available stations are represented by yellow and red dots on the map.

Hover mouse over dot to see the name of the station.

Then click to see weather observations and forecasts.

To change the map : click on the green buttons with a black cross to zoom in, on the green button with a dash to zoom out, or on the green arrows for adjacent maps.


METAR-TAF: